Terminal Aerodrome Forecast
Issued by NWS

Home | Current Version | Previous Version | Text Only | Print | Product List | Glossary On
Versions: 1 2 3 4 5 6 7 8 9 10 11 12 13 14 15 16 17 18 19 20 21 22 23 24 25
000
FTUS46 KMTR 301100
TAFSFO
TAF
KSFO 301122Z 3012/3118 00000KT P6SM FEW010 SCT200
     FM301800 VRB03KT P6SM FEW010 BKN200
     FM302100 25008KT P6SM FEW010 BKN200
     FM310300 23006KT P6SM OVC050
     FM310900 20006KT P6SM BKN015 OVC040
     FM311730 25011KT P6SM -RA BKN025 OVC040=

USA.gov is the U.S. government's official web portal to all federal, state and local government web resources and services.